sensor_id;sensor_type;location;lat;lon;timestamp;temperature;humidity
21275;DHT22;36472;52.170;20.884;2023-09-19T00:00:57;34.50;49.10
21275;DHT22;36472;52.170;20.884;2023-09-19T00:03:39;34.50;49.20
21275;DHT22;36472;52.170;20.884;2023-09-19T00:06:10;34.40;49.20
21275;DHT22;36472;52.170;20.884;2023-09-19T00:08:40;34.40;49.20
21275;DHT22;36472;52.170;20.884;2023-09-19T00:11:13;34.40;49.30
21275;DHT22;36472;52.170;20.884;2023-09-19T00:13:41;34.40;49.30
21275;DHT22;36472;52.170;20.884;2023-09-19T00:16:11;34.40;49.30
21275;DHT22;36472;52.170;20.884;2023-09-19T00:18:41;34.40;49.30
21275;DHT22;36472;52.170;20.884;2023-09-19T00:21:11;34.40;49.40
21275;DHT22;36472;52.170;20.884;2023-09-19T00:23:40;34.40;49.40
21275;DHT22;36472;52.170;20.884;2023-09-19T00:26:09;34.40;49.30
21275;DHT22;36472;52.170;20.884;2023-09-19T00:28:40;34.40;49.30
21275;DHT22;36472;52.170;20.884;2023-09-19T00:31:09;34.40;49.40
21275;DHT22;36472;52.170;20.884;2023-09-19T00:33:38;34.40;49.40
21275;DHT22;36472;52.170;20.884;2023-09-19T00:36:08;34.30;49.30
21275;DHT22;36472;52.170;20.884;2023-09-19T00:38:37;34.30;49.40
21275;DHT22;36472;52.170;20.884;2023-09-19T00:41:06;34.30;50.10
21275;DHT22;36472;52.170;20.884;2023-09-19T00:43:36;34.30;49.40
21275;DHT22;36472;52.170;20.884;2023-09-19T00:46:06;34.30;49.60
21275;DHT22;36472;52.170;20.884;2023-09-19T00:48:40;34.30;49.40
21275;DHT22;36472;52.170;20.884;2023-09-19T00:51:12;34.30;49.40
21275;DHT22;36472;52.170;20.884;2023-09-19T00:53:46;34.30;49.30
21275;DHT22;36472;52.170;20.884;2023-09-19T00:56:16;34.30;49.30
21275;DHT22;36472;52.170;20.884;2023-09-19T00:58:47;34.30;49.30
21275;DHT22;36472;52.170;20.884;2023-09-19T01:01:18;34.30;49.30
21275;DHT22;36472;52.170;20.884;2023-09-19T01:03:48;34.30;49.50
21275;DHT22;36472;52.170;20.884;2023-09-19T01:06:18;34.30;49.50
21275;DHT22;36472;52.170;20.884;2023-09-19T01:08:48;34.20;49.50
21275;DHT22;36472;52.170;20.884;2023-09-19T01:11:27;34.20;49.50
21275;DHT22;36472;52.170;20.884;2023-09-19T01:14:11;34.20;49.50
21275;DHT22;36472;52.170;20.884;2023-09-19T01:16:53;34.30;49.60
21275;DHT22;36472;52.170;20.884;2023-09-19T01:19:58;34.20;50.20
21275;DHT22;36472;52.170;20.884;2023-09-19T01:22:48;34.20;49.40
21275;DHT22;36472;52.170;20.884;2023-09-19T01:28:51;34.30;49.50
21275;DHT22;36472;52.170;20.884;2023-09-19T01:31:29;34.20;49.50
21275;DHT22;36472;52.170;20.884;2023-09-19T01:34:03;34.20;49.50
21275;DHT22;36472;52.170;20.884;2023-09-19T01:36:34;34.20;49.50
21275;DHT22;36472;52.170;20.884;2023-09-19T01:39:09;34.20;49.50
21275;DHT22;36472;52.170;20.884;2023-09-19T01:41:54;34.20;49.50
21275;DHT22;36472;52.170;20.884;2023-09-19T01:44:34;34.20;49.50
21275;DHT22;36472;52.170;20.884;2023-09-19T01:47:17;34.20;49.50
21275;DHT22;36472;52.170;20.884;2023-09-19T01:49:56;34.20;49.60
21275;DHT22;36472;52.170;20.884;2023-09-19T01:52:38;34.20;49.50
21275;DHT22;36472;52.170;20.884;2023-09-19T01:55:16;34.20;49.60
21275;DHT22;36472;52.170;20.884;2023-09-19T01:57:51;34.20;49.50
21275;DHT22;36472;52.170;20.884;2023-09-19T02:00:28;34.20;49.50
21275;DHT22;36472;52.170;20.884;2023-09-19T02:03:01;34.10;49.50
21275;DHT22;36472;52.170;20.884;2023-09-19T02:05:31;34.20;49.60
21275;DHT22;36472;52.170;20.884;2023-09-19T02:08:01;34.10;49.70
21275;DHT22;36472;52.170;20.884;2023-09-19T02:10:30;34.10;49.50
21275;DHT22;36472;52.170;20.884;2023-09-19T02:12:59;34.10;49.50
21275;DHT22;36472;52.170;20.884;2023-09-19T02:15:31;34.10;49.60
21275;DHT22;36472;52.170;20.884;2023-09-19T02:18:04;34.10;49.60
21275;DHT22;36472;52.170;20.884;2023-09-19T02:20:33;34.10;49.60
21275;DHT22;36472;52.170;20.884;2023-09-19T02:23:02;34.10;49.60
21275;DHT22;36472;52.170;20.884;2023-09-19T02:25:31;34.20;49.60
21275;DHT22;36472;52.170;20.884;2023-09-19T02:28:01;34.10;49.50
21275;DHT22;36472;52.170;20.884;2023-09-19T02:30:30;34.20;49.50
21275;DHT22;36472;52.170;20.884;2023-09-19T02:32:59;34.20;49.50
21275;DHT22;36472;52.170;20.884;2023-09-19T02:35:32;34.20;49.40
21275;DHT22;36472;52.170;20.884;2023-09-19T02:38:03;34.20;49.40
21275;DHT22;36472;52.170;20.884;2023-09-19T02:40:34;34.20;49.30
21275;DHT22;36472;52.170;20.884;2023-09-19T02:43:04;34.20;49.40
21275;DHT22;36472;52.170;20.884;2023-09-19T02:45:34;34.20;49.30
21275;DHT22;36472;52.170;20.884;2023-09-19T02:48:04;34.20;49.30
21275;DHT22;36472;52.170;20.884;2023-09-19T02:50:36;34.20;49.30
21275;DHT22;36472;52.170;20.884;2023-09-19T02:53:06;34.10;49.30
21275;DHT22;36472;52.170;20.884;2023-09-19T02:55:35;34.10;49.30
21275;DHT22;36472;52.170;20.884;2023-09-19T02:58:03;34.10;49.30
21275;DHT22;36472;52.170;20.884;2023-09-19T03:00:35;34.10;49.20
21275;DHT22;36472;52.170;20.884;2023-09-19T03:03:04;34.10;49.30
21275;DHT22;36472;52.170;20.884;2023-09-19T03:05:36;34.10;49.30
21275;DHT22;36472;52.170;20.884;2023-09-19T03:08:06;34.10;49.40
21275;DHT22;36472;52.170;20.884;2023-09-19T03:10:35;34.10;49.20
21275;DHT22;36472;52.170;20.884;2023-09-19T03:13:05;34.10;49.30
21275;DHT22;36472;52.170;20.884;2023-09-19T03:15:41;34.10;49.30
21275;DHT22;36472;52.170;20.884;2023-09-19T03:18:12;34.00;49.30
21275;DHT22;36472;52.170;20.884;2023-09-19T03:20:42;34.00;49.20
21275;DHT22;36472;52.170;20.884;2023-09-19T03:23:12;34.00;49.30
21275;DHT22;36472;52.170;20.884;2023-09-19T03:25:40;34.00;49.40
21275;DHT22;36472;52.170;20.884;2023-09-19T03:28:10;34.00;49.40
21275;DHT22;36472;52.170;20.884;2023-09-19T03:30:39;33.90;49.50
21275;DHT22;36472;52.170;20.884;2023-09-19T03:33:08;33.90;49.50
21275;DHT22;36472;52.170;20.884;2023-09-19T03:35:38;33.90;49.50
21275;DHT22;36472;52.170;20.884;2023-09-19T03:38:10;33.90;49.50
21275;DHT22;36472;52.170;20.884;2023-09-19T03:40:39;33.90;49.40
21275;DHT22;36472;52.170;20.884;2023-09-19T03:43:08;33.90;49.50
21275;DHT22;36472;52.170;20.884;2023-09-19T03:45:37;33.80;49.50
21275;DHT22;36472;52.170;20.884;2023-09-19T03:48:08;33.90;49.60
21275;DHT22;36472;52.170;20.884;2023-09-19T03:50:38;33.90;49.70
21275;DHT22;36472;52.170;20.884;2023-09-19T03:53:07;33.90;49.80
21275;DHT22;36472;52.170;20.884;2023-09-19T03:55:37;33.80;49.70
21275;DHT22;36472;52.170;20.884;2023-09-19T03:58:07;33.90;50.50
21275;DHT22;36472;52.170;20.884;2023-09-19T04:00:36;33.90;49.80
21275;DHT22;36472;52.170;20.884;2023-09-19T04:03:06;33.80;49.70
21275;DHT22;36472;52.170;20.884;2023-09-19T04:05:36;33.90;49.70
21275;DHT22;36472;52.170;20.884;2023-09-19T04:08:05;33.90;49.70
21275;DHT22;36472;52.170;20.884;2023-09-19T04:10:34;33.90;49.70
21275;DHT22;36472;52.170;20.884;2023-09-19T04:13:05;33.90;49.60
21275;DHT22;36472;52.170;20.884;2023-09-19T04:15:34;33.90;49.60
21275;DHT22;36472;52.170;20.884;2023-09-19T04:18:05;33.90;49.60
21275;DHT22;36472;52.170;20.884;2023-09-19T04:20:34;33.90;49.60
21275;DHT22;36472;52.170;20.884;2023-09-19T04:23:03;33.90;49.60
21275;DHT22;36472;52.170;20.884;2023-09-19T04:25:33;33.90;49.60
21275;DHT22;36472;52.170;20.884;2023-09-19T04:28:02;33.80;49.60
21275;DHT22;36472;52.170;20.884;2023-09-19T04:30:33;33.90;49.60
21275;DHT22;36472;52.170;20.884;2023-09-19T04:37:36;33.80;49.70
21275;DHT22;36472;52.170;20.884;2023-09-19T04:40:08;33.80;49.70
21275;DHT22;36472;52.170;20.884;2023-09-19T04:42:41;33.80;49.70
21275;DHT22;36472;52.170;20.884;2023-09-19T04:45:11;33.80;49.80
21275;DHT22;36472;52.170;20.884;2023-09-19T04:47:41;33.80;49.70
21275;DHT22;36472;52.170;20.884;2023-09-19T04:50:11;33.80;49.70
21275;DHT22;36472;52.170;20.884;2023-09-19T04:52:42;33.80;49.60
21275;DHT22;36472;52.170;20.884;2023-09-19T04:55:13;33.80;49.70
21275;DHT22;36472;52.170;20.884;2023-09-19T04:57:46;33.80;49.60
21275;DHT22;36472;52.170;20.884;2023-09-19T05:00:18;33.80;49.70
21275;DHT22;36472;52.170;20.884;2023-09-19T05:02:51;33.80;49.80
21275;DHT22;36472;52.170;20.884;2023-09-19T05:05:22;33.80;49.70
21275;DHT22;36472;52.170;20.884;2023-09-19T05:07:53;33.80;49.80
21275;DHT22;36472;52.170;20.884;2023-09-19T05:10:23;33.80;49.80
21275;DHT22;36472;52.170;20.884;2023-09-19T05:12:55;33.80;49.70
21275;DHT22;36472;52.170;20.884;2023-09-19T05:15:25;33.80;49.70
21275;DHT22;36472;52.170;20.884;2023-09-19T05:17:55;33.80;49.80
21275;DHT22;36472;52.170;20.884;2023-09-19T05:20:25;33.80;49.80
21275;DHT22;36472;52.170;20.884;2023-09-19T05:22:59;33.90;49.80
21275;DHT22;36472;52.170;20.884;2023-09-19T05:25:31;33.90;49.90
21275;DHT22;36472;52.170;20.884;2023-09-19T05:28:06;33.90;49.80
21275;DHT22;36472;52.170;20.884;2023-09-19T05:30:38;34.00;49.70
21275;DHT22;36472;52.170;20.884;2023-09-19T05:37:39;34.10;49.80
21275;DHT22;36472;52.170;20.884;2023-09-19T05:40:09;34.10;49.70
21275;DHT22;36472;52.170;20.884;2023-09-19T05:42:39;34.10;49.70
21275;DHT22;36472;52.170;20.884;2023-09-19T05:45:09;34.20;49.60
21275;DHT22;36472;52.170;20.884;2023-09-19T05:47:41;34.20;49.60
21275;DHT22;36472;52.170;20.884;2023-09-19T05:50:13;34.20;49.60
21275;DHT22;36472;52.170;20.884;2023-09-19T05:52:42;34.20;49.70
21275;DHT22;36472;52.170;20.884;2023-09-19T05:55:12;34.20;49.50
21275;DHT22;36472;52.170;20.884;2023-09-19T05:57:42;34.30;49.60
21275;DHT22;36472;52.170;20.884;2023-09-19T06:00:12;34.30;49.60
21275;DHT22;36472;52.170;20.884;2023-09-19T06:02:43;34.30;49.70
21275;DHT22;36472;52.170;20.884;2023-09-19T06:05:12;34.30;49.70
21275;DHT22;36472;52.170;20.884;2023-09-19T06:07:42;34.40;49.70
21275;DHT22;36472;52.170;20.884;2023-09-19T06:10:11;34.40;49.80
21275;DHT22;36472;52.170;20.884;2023-09-19T06:12:41;34.50;50.00
21275;DHT22;36472;52.170;20.884;2023-09-19T06:15:12;34.50;49.90
21275;DHT22;36472;52.170;20.884;2023-09-19T06:17:46;34.60;49.60
21275;DHT22;36472;52.170;20.884;2023-09-19T06:20:16;34.70;49.40
21275;DHT22;36472;52.170;20.884;2023-09-19T06:22:52;34.70;49.10
21275;DHT22;36472;52.170;20.884;2023-09-19T06:25:22;34.80;49.30
21275;DHT22;36472;52.170;20.884;2023-09-19T06:32:26;34.90;49.10
21275;DHT22;36472;52.170;20.884;2023-09-19T06:34:58;35.00;48.90
21275;DHT22;36472;52.170;20.884;2023-09-19T06:37:27;35.00;48.50
21275;DHT22;36472;52.170;20.884;2023-09-19T06:44:28;35.10;48.60
21275;DHT22;36472;52.170;20.884;2023-09-19T06:46:59;35.10;48.50
21275;DHT22;36472;52.170;20.884;2023-09-19T06:49:28;35.10;49.20
21275;DHT22;36472;52.170;20.884;2023-09-19T06:52:00;35.20;48.60
21275;DHT22;36472;52.170;20.884;2023-09-19T06:54:30;35.30;48.60
21275;DHT22;36472;52.170;20.884;2023-09-19T07:01:36;35.40;48.30
21275;DHT22;36472;52.170;20.884;2023-09-19T07:04:05;35.40;47.90
21275;DHT22;36472;52.170;20.884;2023-09-19T07:06:34;35.50;47.90
21275;DHT22;36472;52.170;20.884;2023-09-19T07:09:05;35.50;48.10
21275;DHT22;36472;52.170;20.884;2023-09-19T07:11:34;35.60;47.90
21275;DHT22;36472;52.170;20.884;2023-09-19T07:14:04;35.60;47.90
21275;DHT22;36472;52.170;20.884;2023-09-19T07:16:33;35.70;47.90
21275;DHT22;36472;52.170;20.884;2023-09-19T07:19:03;35.80;48.00
21275;DHT22;36472;52.170;20.884;2023-09-19T07:21:32;35.80;47.10
21275;DHT22;36472;52.170;20.884;2023-09-19T07:24:04;35.90;47.20
21275;DHT22;36472;52.170;20.884;2023-09-19T07:26:35;36.00;47.40
21275;DHT22;36472;52.170;20.884;2023-09-19T07:29:07;36.10;47.20
21275;DHT22;36472;52.170;20.884;2023-09-19T07:36:12;36.20;46.90
21275;DHT22;36472;52.170;20.884;2023-09-19T07:38:41;36.30;46.40
21275;DHT22;36472;52.170;20.884;2023-09-19T07:41:15;36.30;46.30
21275;DHT22;36472;52.170;20.884;2023-09-19T07:43:44;36.30;46.20
21275;DHT22;36472;52.170;20.884;2023-09-19T07:46:13;36.30;47.00
21275;DHT22;36472;52.170;20.884;2023-09-19T07:48:42;36.40;46.50
21275;DHT22;36472;52.170;20.884;2023-09-19T07:51:18;36.40;46.10
21275;DHT22;36472;52.170;20.884;2023-09-19T07:53:47;36.40;46.20
21275;DHT22;36472;52.170;20.884;2023-09-19T07:56:18;36.40;46.40
21275;DHT22;36472;52.170;20.884;2023-09-19T07:58:50;36.40;46.20
21275;DHT22;36472;52.170;20.884;2023-09-19T08:01:20;36.40;46.10
21275;DHT22;36472;52.170;20.884;2023-09-19T08:03:51;36.40;46.10
21275;DHT22;36472;52.170;20.884;2023-09-19T08:10:53;36.40;46.30
21275;DHT22;36472;52.170;20.884;2023-09-19T08:13:25;36.40;46.70
21275;DHT22;36472;52.170;20.884;2023-09-19T08:15:55;36.40;46.40
21275;DHT22;36472;52.170;20.884;2023-09-19T08:18:24;36.50;46.70
21275;DHT22;36472;52.170;20.884;2023-09-19T08:20:54;36.50;46.40
21275;DHT22;36472;52.170;20.884;2023-09-19T08:23:26;36.50;46.60
21275;DHT22;36472;52.170;20.884;2023-09-19T08:25:56;36.60;46.60
21275;DHT22;36472;52.170;20.884;2023-09-19T08:28:36;36.50;46.40
21275;DHT22;36472;52.170;20.884;2023-09-19T08:31:08;36.50;46.40
21275;DHT22;36472;52.170;20.884;2023-09-19T08:33:38;36.50;46.40
21275;DHT22;36472;52.170;20.884;2023-09-19T08:36:08;36.40;46.60
21275;DHT22;36472;52.170;20.884;2023-09-19T08:38:37;36.30;46.60
21275;DHT22;36472;52.170;20.884;2023-09-19T08:41:07;36.20;46.70
21275;DHT22;36472;52.170;20.884;2023-09-19T08:43:38;36.20;46.90
21275;DHT22;36472;52.170;20.884;2023-09-19T08:46:11;36.20;47.20
21275;DHT22;36472;52.170;20.884;2023-09-19T08:48:48;36.20;47.20
21275;DHT22;36472;52.170;20.884;2023-09-19T08:51:27;36.20;47.20
21275;DHT22;36472;52.170;20.884;2023-09-19T08:54:06;36.20;47.20
21275;DHT22;36472;52.170;20.884;2023-09-19T08:56:38;36.10;47.40
21275;DHT22;36472;52.170;20.884;2023-09-19T09:03:40;36.10;47.50
21275;DHT22;36472;52.170;20.884;2023-09-19T09:06:16;36.00;47.40
21275;DHT22;36472;52.170;20.884;2023-09-19T09:08:46;36.00;47.70
21275;DHT22;36472;52.170;20.884;2023-09-19T09:11:16;36.00;47.60
21275;DHT22;36472;52.170;20.884;2023-09-19T09:13:46;36.00;47.90
21275;DHT22;36472;52.170;20.884;2023-09-19T09:16:16;36.00;47.90
21275;DHT22;36472;52.170;20.884;2023-09-19T09:18:49;35.90;48.10
21275;DHT22;36472;52.170;20.884;2023-09-19T09:21:21;35.90;49.00
21275;DHT22;36472;52.170;20.884;2023-09-19T09:23:53;35.80;50.30
21275;DHT22;36472;52.170;20.884;2023-09-19T09:26:40;35.70;50.70
21275;DHT22;36472;52.170;20.884;2023-09-19T09:29:14;35.50;51.20
21275;DHT22;36472;52.170;20.884;2023-09-19T09:31:47;35.30;51.90
21275;DHT22;36472;52.170;20.884;2023-09-19T09:34:18;35.10;52.90
21275;DHT22;36472;52.170;20.884;2023-09-19T09:36:48;34.90;53.50
21275;DHT22;36472;52.170;20.884;2023-09-19T09:39:30;34.80;53.50
21275;DHT22;36472;52.170;20.884;2023-09-19T09:42:00;34.60;53.70
21275;DHT22;36472;52.170;20.884;2023-09-19T09:44:37;34.40;54.00
21275;DHT22;36472;52.170;20.884;2023-09-19T09:47:06;34.40;54.50
21275;DHT22;36472;52.170;20.884;2023-09-19T09:49:54;34.20;54.30
21275;DHT22;36472;52.170;20.884;2023-09-19T09:52:44;34.10;54.70
21275;DHT22;36472;52.170;20.884;2023-09-19T09:55:15;34.10;55.10
21275;DHT22;36472;52.170;20.884;2023-09-19T09:58:15;34.10;55.60
21275;DHT22;36472;52.170;20.884;2023-09-19T10:00:55;34.00;55.50
21275;DHT22;36472;52.170;20.884;2023-09-19T10:03:33;34.00;55.40
21275;DHT22;36472;52.170;20.884;2023-09-19T10:06:10;34.10;55.80
21275;DHT22;36472;52.170;20.884;2023-09-19T10:08:58;34.10;55.80
21275;DHT22;36472;52.170;20.884;2023-09-19T10:11:42;34.10;56.00
21275;DHT22;36472;52.170;20.884;2023-09-19T10:14:15;34.10;56.00
21275;DHT22;36472;52.170;20.884;2023-09-19T10:16:48;34.10;56.10
21275;DHT22;36472;52.170;20.884;2023-09-19T10:19:23;34.10;56.00
21275;DHT22;36472;52.170;20.884;2023-09-19T10:22:00;34.20;56.20
21275;DHT22;36472;52.170;20.884;2023-09-19T10:24:30;34.20;55.80
21275;DHT22;36472;52.170;20.884;2023-09-19T10:27:07;34.20;55.50
21275;DHT22;36472;52.170;20.884;2023-09-19T10:29:39;34.20;55.60
21275;DHT22;36472;52.170;20.884;2023-09-19T10:36:51;34.20;56.00
21275;DHT22;36472;52.170;20.884;2023-09-19T10:39:23;34.30;56.50
21275;DHT22;36472;52.170;20.884;2023-09-19T10:41:54;34.30;56.30
21275;DHT22;36472;52.170;20.884;2023-09-19T10:44:26;34.40;56.00
21275;DHT22;36472;52.170;20.884;2023-09-19T10:46:59;34.40;55.90
21275;DHT22;36472;52.170;20.884;2023-09-19T10:49:28;34.40;56.20
21275;DHT22;36472;52.170;20.884;2023-09-19T10:52:00;34.50;55.60
21275;DHT22;36472;52.170;20.884;2023-09-19T10:54:33;34.50;55.60
21275;DHT22;36472;52.170;20.884;2023-09-19T10:57:04;34.50;55.50
21275;DHT22;36472;52.170;20.884;2023-09-19T10:59:36;34.50;55.20
21275;DHT22;36472;52.170;20.884;2023-09-19T11:02:17;34.50;55.90
21275;DHT22;36472;52.170;20.884;2023-09-19T11:04:47;34.60;55.50
21275;DHT22;36472;52.170;20.884;2023-09-19T11:07:17;34.60;56.00
21275;DHT22;36472;52.170;20.884;2023-09-19T11:09:49;34.60;56.00
21275;DHT22;36472;52.170;20.884;2023-09-19T11:12:48;34.70;56.20
21275;DHT22;36472;52.170;20.884;2023-09-19T11:23:24;34.90;55.50
21275;DHT22;36472;52.170;20.884;2023-09-19T11:25:55;34.90;55.10
21275;DHT22;36472;52.170;20.884;2023-09-19T11:28:33;34.90;54.50
21275;DHT22;36472;52.170;20.884;2023-09-19T11:34:41;34.80;54.90
21275;DHT22;36472;52.170;20.884;2023-09-19T11:40:35;34.80;55.20
21275;DHT22;36472;52.170;20.884;2023-09-19T11:43:30;34.90;55.40
21275;DHT22;36472;52.170;20.884;2023-09-19T11:46:06;34.90;55.10
21275;DHT22;36472;52.170;20.884;2023-09-19T11:48:37;34.90;55.00
21275;DHT22;36472;52.170;20.884;2023-09-19T11:51:20;34.90;55.00
21275;DHT22;36472;52.170;20.884;2023-09-19T11:53:56;34.90;55.30
21275;DHT22;36472;52.170;20.884;2023-09-19T11:56:28;35.00;55.20
21275;DHT22;36472;52.170;20.884;2023-09-19T11:59:00;35.00;54.90
21275;DHT22;36472;52.170;20.884;2023-09-19T12:01:32;35.00;54.70
21275;DHT22;36472;52.170;20.884;2023-09-19T12:04:03;35.00;54.60
21275;DHT22;36472;52.170;20.884;2023-09-19T12:11:06;35.00;54.60
21275;DHT22;36472;52.170;20.884;2023-09-19T12:13:42;35.00;54.70
21275;DHT22;36472;52.170;20.884;2023-09-19T12:16:18;35.10;55.00
21275;DHT22;36472;52.170;20.884;2023-09-19T12:18:50;35.10;54.70
21275;DHT22;36472;52.170;20.884;2023-09-19T12:21:29;35.10;54.90
21275;DHT22;36472;52.170;20.884;2023-09-19T12:24:06;35.10;55.30
21275;DHT22;36472;52.170;20.884;2023-09-19T12:26:41;35.10;54.10
21275;DHT22;36472;52.170;20.884;2023-09-19T12:29:13;35.10;55.00
21275;DHT22;36472;52.170;20.884;2023-09-19T12:31:51;35.10;54.60
21275;DHT22;36472;52.170;20.884;2023-09-19T12:34:23;35.10;54.60
21275;DHT22;36472;52.170;20.884;2023-09-19T12:37:05;35.10;54.50
21275;DHT22;36472;52.170;20.884;2023-09-19T12:39:40;35.10;54.60
21275;DHT22;36472;52.170;20.884;2023-09-19T12:42:10;35.10;54.60
21275;DHT22;36472;52.170;20.884;2023-09-19T12:44:42;35.10;54.30
21275;DHT22;36472;52.170;20.884;2023-09-19T12:47:16;35.10;54.70
21275;DHT22;36472;52.170;20.884;2023-09-19T12:50:10;35.10;54.70
21275;DHT22;36472;52.170;20.884;2023-09-19T12:52:46;35.10;54.90
21275;DHT22;36472;52.170;20.884;2023-09-19T12:55:21;35.20;54.90
21275;DHT22;36472;52.170;20.884;2023-09-19T12:58:01;35.20;54.90
21275;DHT22;36472;52.170;20.884;2023-09-19T13:00:37;35.20;54.90
21275;DHT22;36472;52.170;20.884;2023-09-19T13:07:42;35.20;54.70
21275;DHT22;36472;52.170;20.884;2023-09-19T13:10:13;35.20;54.70
21275;DHT22;36472;52.170;20.884;2023-09-19T13:12:44;35.30;54.60
21275;DHT22;36472;52.170;20.884;2023-09-19T13:15:15;35.30;54.90
21275;DHT22;36472;52.170;20.884;2023-09-19T13:17:48;35.30;54.80
21275;DHT22;36472;52.170;20.884;2023-09-19T13:20:22;35.30;54.60
21275;DHT22;36472;52.170;20.884;2023-09-19T13:27:28;35.30;54.80
21275;DHT22;36472;52.170;20.884;2023-09-19T13:29:57;35.30;54.50
21275;DHT22;36472;52.170;20.884;2023-09-19T13:36:59;35.40;54.70
21275;DHT22;36472;52.170;20.884;2023-09-19T13:39:28;35.40;54.50
21275;DHT22;36472;52.170;20.884;2023-09-19T13:41:59;35.40;54.60
21275;DHT22;36472;52.170;20.884;2023-09-19T13:49:04;35.40;54.60
21275;DHT22;36472;52.170;20.884;2023-09-19T13:51:33;35.50;54.70
21275;DHT22;36472;52.170;20.884;2023-09-19T13:54:02;35.50;54.90
21275;DHT22;36472;52.170;20.884;2023-09-19T13:56:31;35.50;54.80
21275;DHT22;36472;52.170;20.884;2023-09-19T13:59:01;35.50;54.60
21275;DHT22;36472;52.170;20.884;2023-09-19T14:01:30;35.50;54.80
21275;DHT22;36472;52.170;20.884;2023-09-19T14:04:01;35.50;55.00
21275;DHT22;36472;52.170;20.884;2023-09-19T14:06:31;35.50;54.60
21275;DHT22;36472;52.170;20.884;2023-09-19T14:09:00;35.50;54.30
21275;DHT22;36472;52.170;20.884;2023-09-19T14:11:31;35.50;54.40
21275;DHT22;36472;52.170;20.884;2023-09-19T14:14:00;35.50;53.60
21275;DHT22;36472;52.170;20.884;2023-09-19T14:16:30;35.40;53.20
21275;DHT22;36472;52.170;20.884;2023-09-19T14:19:02;35.40;52.30
21275;DHT22;36472;52.170;20.884;2023-09-19T14:21:32;35.30;52.20
21275;DHT22;36472;52.170;20.884;2023-09-19T14:28:33;35.20;52.30
21275;DHT22;36472;52.170;20.884;2023-09-19T14:31:06;35.10;52.40
21275;DHT22;36472;52.170;20.884;2023-09-19T14:33:36;35.10;52.30
21275;DHT22;36472;52.170;20.884;2023-09-19T14:36:09;35.10;52.90
21275;DHT22;36472;52.170;20.884;2023-09-19T14:38:39;35.00;52.50
21275;DHT22;36472;52.170;20.884;2023-09-19T14:41:08;35.00;52.10
21275;DHT22;36472;52.170;20.884;2023-09-19T14:43:38;35.10;52.30
21275;DHT22;36472;52.170;20.884;2023-09-19T14:46:07;35.00;52.60
21275;DHT22;36472;52.170;20.884;2023-09-19T14:48:37;35.00;52.00
21275;DHT22;36472;52.170;20.884;2023-09-19T14:55:40;35.10;52.30
21275;DHT22;36472;52.170;20.884;2023-09-19T14:58:11;35.20;52.40
21275;DHT22;36472;52.170;20.884;2023-09-19T15:00:41;35.10;52.10
21275;DHT22;36472;52.170;20.884;2023-09-19T15:03:12;35.20;52.30
21275;DHT22;36472;52.170;20.884;2023-09-19T15:05:43;35.20;52.20
21275;DHT22;36472;52.170;20.884;2023-09-19T15:08:12;35.20;52.30
21275;DHT22;36472;52.170;20.884;2023-09-19T15:10:49;35.20;52.50
21275;DHT22;36472;52.170;20.884;2023-09-19T15:13:20;35.20;52.60
21275;DHT22;36472;52.170;20.884;2023-09-19T15:15:49;35.20;52.20
21275;DHT22;36472;52.170;20.884;2023-09-19T15:18:18;35.30;52.60
21275;DHT22;36472;52.170;20.884;2023-09-19T15:20:48;35.30;53.10
21275;DHT22;36472;52.170;20.884;2023-09-19T15:23:18;35.30;52.60
21275;DHT22;36472;52.170;20.884;2023-09-19T15:26:00;35.30;53.10
21275;DHT22;36472;52.170;20.884;2023-09-19T15:37:36;35.40;53.20
21275;DHT22;36472;52.170;20.884;2023-09-19T15:44:38;35.40;51.90
21275;DHT22;36472;52.170;20.884;2023-09-19T15:47:08;35.40;52.10
21275;DHT22;36472;52.170;20.884;2023-09-19T15:49:37;35.50;52.20
21275;DHT22;36472;52.170;20.884;2023-09-19T15:52:06;35.50;52.20
21275;DHT22;36472;52.170;20.884;2023-09-19T15:54:36;35.50;52.20
21275;DHT22;36472;52.170;20.884;2023-09-19T16:01:43;35.50;51.90
21275;DHT22;36472;52.170;20.884;2023-09-19T16:04:13;35.50;51.20
21275;DHT22;36472;52.170;20.884;2023-09-19T16:06:44;35.50;51.50
21275;DHT22;36472;52.170;20.884;2023-09-19T16:09:13;35.50;51.00
21275;DHT22;36472;52.170;20.884;2023-09-19T16:11:44;35.40;50.50
21275;DHT22;36472;52.170;20.884;2023-09-19T16:14:13;35.40;50.50
21275;DHT22;36472;52.170;20.884;2023-09-19T16:16:46;35.40;50.90
21275;DHT22;36472;52.170;20.884;2023-09-19T16:19:15;35.40;50.60
21275;DHT22;36472;52.170;20.884;2023-09-19T16:21:44;35.40;50.50
21275;DHT22;36472;52.170;20.884;2023-09-19T16:24:13;35.40;50.90
21275;DHT22;36472;52.170;20.884;2023-09-19T16:26:44;35.40;51.20
21275;DHT22;36472;52.170;20.884;2023-09-19T16:29:13;35.40;51.90
21275;DHT22;36472;52.170;20.884;2023-09-19T16:31:43;35.40;51.80
21275;DHT22;36472;52.170;20.884;2023-09-19T16:34:13;35.40;51.90
21275;DHT22;36472;52.170;20.884;2023-09-19T16:36:42;35.30;52.20
21275;DHT22;36472;52.170;20.884;2023-09-19T16:39:12;35.40;52.10
21275;DHT22;36472;52.170;20.884;2023-09-19T16:41:41;35.30;52.30
21275;DHT22;36472;52.170;20.884;2023-09-19T16:44:10;35.30;52.40
21275;DHT22;36472;52.170;20.884;2023-09-19T16:46:42;35.20;52.20
21275;DHT22;36472;52.170;20.884;2023-09-19T16:53:47;35.20;52.40
21275;DHT22;36472;52.170;20.884;2023-09-19T16:56:20;35.20;52.30
21275;DHT22;36472;52.170;20.884;2023-09-19T16:58:50;35.10;52.30
21275;DHT22;36472;52.170;20.884;2023-09-19T17:01:20;35.10;52.50
21275;DHT22;36472;52.170;20.884;2023-09-19T17:03:53;35.10;52.40
21275;DHT22;36472;52.170;20.884;2023-09-19T17:06:24;35.00;51.80
21275;DHT22;36472;52.170;20.884;2023-09-19T17:08:55;35.00;52.20
21275;DHT22;36472;52.170;20.884;2023-09-19T17:11:24;35.00;52.50
21275;DHT22;36472;52.170;20.884;2023-09-19T17:13:54;34.90;50.90
21275;DHT22;36472;52.170;20.884;2023-09-19T17:16:24;34.90;52.00
21275;DHT22;36472;52.170;20.884;2023-09-19T17:18:57;34.90;51.50
21275;DHT22;36472;52.170;20.884;2023-09-19T17:21:27;34.90;51.30
21275;DHT22;36472;52.170;20.884;2023-09-19T17:23:58;34.90;51.50
21275;DHT22;36472;52.170;20.884;2023-09-19T17:26:27;34.90;51.10
21275;DHT22;36472;52.170;20.884;2023-09-19T17:28:57;34.80;50.20
21275;DHT22;36472;52.170;20.884;2023-09-19T17:31:26;34.80;49.60
21275;DHT22;36472;52.170;20.884;2023-09-19T17:33:56;34.80;50.90
21275;DHT22;36472;52.170;20.884;2023-09-19T17:36:26;34.70;50.70
21275;DHT22;36472;52.170;20.884;2023-09-19T17:38:56;34.70;51.00